sensor_id;sensor_type;location;lat;lon;timestamp;P1;durP1;ratioP1;P2;durP2;ratioP2
7295;SDS011;40758;54.038;11.684;2024-01-30T00:00:02;7.18;;;2.70;;
7295;SDS011;40758;54.038;11.684;2024-01-30T00:02:30;8.18;;;3.20;;
7295;SDS011;40758;54.038;11.684;2024-01-30T00:04:57;8.10;;;3.72;;
7295;SDS011;40758;54.038;11.684;2024-01-30T00:07:24;6.82;;;3.58;;
7295;SDS011;40758;54.038;11.684;2024-01-30T00:09:51;5.55;;;2.80;;
7295;SDS011;40758;54.038;11.684;2024-01-30T00:12:17;7.75;;;3.08;;
7295;SDS011;40758;54.038;11.684;2024-01-30T00:14:45;6.30;;;3.00;;
7295;SDS011;40758;54.038;11.684;2024-01-30T00:17:12;7.25;;;3.47;;
7295;SDS011;40758;54.038;11.684;2024-01-30T00:19:38;5.80;;;3.33;;
7295;SDS011;40758;54.038;11.684;2024-01-30T00:22:05;7.45;;;3.65;;
7295;SDS011;40758;54.038;11.684;2024-01-30T00:24:32;9.82;;;4.43;;
7295;SDS011;40758;54.038;11.684;2024-01-30T00:26:59;6.70;;;3.45;;
7295;SDS011;40758;54.038;11.684;2024-01-30T00:29:25;8.13;;;3.70;;
7295;SDS011;40758;54.038;11.684;2024-01-30T00:31:56;9.02;;;4.50;;
7295;SDS011;40758;54.038;11.684;2024-01-30T00:34:23;8.05;;;3.22;;
7295;SDS011;40758;54.038;11.684;2024-01-30T00:36:50;8.05;;;5.10;;
7295;SDS011;40758;54.038;11.684;2024-01-30T00:39:18;8.02;;;3.35;;
7295;SDS011;40758;54.038;11.684;2024-01-30T00:41:46;7.80;;;3.97;;
7295;SDS011;40758;54.038;11.684;2024-01-30T00:44:12;6.63;;;3.45;;
7295;SDS011;40758;54.038;11.684;2024-01-30T00:46:39;8.52;;;4.32;;
7295;SDS011;40758;54.038;11.684;2024-01-30T00:49:06;7.65;;;3.55;;
7295;SDS011;40758;54.038;11.684;2024-01-30T00:51:33;7.35;;;3.88;;
7295;SDS011;40758;54.038;11.684;2024-01-30T00:54:00;6.38;;;4.00;;
7295;SDS011;40758;54.038;11.684;2024-01-30T00:56:26;8.75;;;3.42;;
7295;SDS011;40758;54.038;11.684;2024-01-30T00:58:53;8.32;;;3.58;;
7295;SDS011;40758;54.038;11.684;2024-01-30T01:01:20;9.98;;;4.15;;
7295;SDS011;40758;54.038;11.684;2024-01-30T01:03:47;7.57;;;3.83;;
7295;SDS011;40758;54.038;11.684;2024-01-30T01:06:15;8.60;;;4.85;;
7295;SDS011;40758;54.038;11.684;2024-01-30T01:08:42;7.30;;;4.47;;
7295;SDS011;40758;54.038;11.684;2024-01-30T01:11:08;8.57;;;4.80;;
7295;SDS011;40758;54.038;11.684;2024-01-30T01:13:36;7.20;;;4.07;;
7295;SDS011;40758;54.038;11.684;2024-01-30T01:16:02;8.07;;;3.72;;
7295;SDS011;40758;54.038;11.684;2024-01-30T01:18:30;8.10;;;3.80;;
7295;SDS011;40758;54.038;11.684;2024-01-30T01:20:57;8.57;;;4.05;;
7295;SDS011;40758;54.038;11.684;2024-01-30T01:23:24;8.60;;;3.83;;
7295;SDS011;40758;54.038;11.684;2024-01-30T01:25:51;9.07;;;4.40;;
7295;SDS011;40758;54.038;11.684;2024-01-30T01:28:18;8.32;;;4.70;;
7295;SDS011;40758;54.038;11.684;2024-01-30T01:30:45;9.10;;;4.88;;
7295;SDS011;40758;54.038;11.684;2024-01-30T01:33:12;8.00;;;4.75;;
7295;SDS011;40758;54.038;11.684;2024-01-30T01:35:41;7.60;;;3.92;;
7295;SDS011;40758;54.038;11.684;2024-01-30T01:38:08;9.00;;;4.32;;
7295;SDS011;40758;54.038;11.684;2024-01-30T01:40:34;7.22;;;4.22;;
7295;SDS011;40758;54.038;11.684;2024-01-30T01:43:02;7.78;;;3.65;;
7295;SDS011;40758;54.038;11.684;2024-01-30T01:45:30;10.68;;;4.57;;
7295;SDS011;40758;54.038;11.684;2024-01-30T01:47:57;10.25;;;4.32;;
7295;SDS011;40758;54.038;11.684;2024-01-30T01:50:24;9.57;;;4.30;;
7295;SDS011;40758;54.038;11.684;2024-01-30T01:52:51;9.23;;;5.32;;
7295;SDS011;40758;54.038;11.684;2024-01-30T01:55:19;8.82;;;4.45;;
7295;SDS011;40758;54.038;11.684;2024-01-30T01:57:53;10.48;;;6.90;;
7295;SDS011;40758;54.038;11.684;2024-01-30T02:00:20;9.77;;;6.13;;
7295;SDS011;40758;54.038;11.684;2024-01-30T02:02:47;8.40;;;4.70;;
7295;SDS011;40758;54.038;11.684;2024-01-30T02:05:14;8.52;;;4.07;;
7295;SDS011;40758;54.038;11.684;2024-01-30T02:07:42;10.68;;;4.75;;
7295;SDS011;40758;54.038;11.684;2024-01-30T02:10:10;8.85;;;4.70;;
7295;SDS011;40758;54.038;11.684;2024-01-30T02:12:37;9.05;;;4.53;;
7295;SDS011;40758;54.038;11.684;2024-01-30T02:15:04;8.65;;;4.28;;
7295;SDS011;40758;54.038;11.684;2024-01-30T02:17:31;9.48;;;4.93;;
7295;SDS011;40758;54.038;11.684;2024-01-30T02:19:58;9.20;;;4.63;;
7295;SDS011;40758;54.038;11.684;2024-01-30T02:22:26;11.20;;;5.47;;
7295;SDS011;40758;54.038;11.684;2024-01-30T02:24:54;6.18;;;3.55;;
7295;SDS011;40758;54.038;11.684;2024-01-30T02:27:20;8.43;;;3.92;;
7295;SDS011;40758;54.038;11.684;2024-01-30T02:29:47;8.55;;;6.43;;
7295;SDS011;40758;54.038;11.684;2024-01-30T02:32:13;6.47;;;3.60;;
7295;SDS011;40758;54.038;11.684;2024-01-30T02:34:40;7.32;;;4.43;;
7295;SDS011;40758;54.038;11.684;2024-01-30T02:37:07;7.20;;;4.95;;
7295;SDS011;40758;54.038;11.684;2024-01-30T02:39:34;8.43;;;4.13;;
7295;SDS011;40758;54.038;11.684;2024-01-30T02:42:01;6.82;;;3.05;;
7295;SDS011;40758;54.038;11.684;2024-01-30T02:44:28;7.20;;;4.25;;
7295;SDS011;40758;54.038;11.684;2024-01-30T02:46:55;7.65;;;3.47;;
7295;SDS011;40758;54.038;11.684;2024-01-30T02:49:22;7.95;;;4.93;;
7295;SDS011;40758;54.038;11.684;2024-01-30T02:51:49;6.57;;;3.97;;
7295;SDS011;40758;54.038;11.684;2024-01-30T02:54:16;7.35;;;3.65;;
7295;SDS011;40758;54.038;11.684;2024-01-30T02:56:42;6.50;;;4.32;;
7295;SDS011;40758;54.038;11.684;2024-01-30T02:59:09;7.45;;;3.03;;
7295;SDS011;40758;54.038;11.684;2024-01-30T03:01:45;7.72;;;3.88;;
7295;SDS011;40758;54.038;11.684;2024-01-30T03:04:13;8.88;;;3.78;;
7295;SDS011;40758;54.038;11.684;2024-01-30T03:06:44;6.97;;;3.83;;
7295;SDS011;40758;54.038;11.684;2024-01-30T03:09:12;8.82;;;3.00;;
7295;SDS011;40758;54.038;11.684;2024-01-30T03:11:40;6.00;;;2.88;;
7295;SDS011;40758;54.038;11.684;2024-01-30T03:14:06;7.30;;;3.78;;
7295;SDS011;40758;54.038;11.684;2024-01-30T03:16:34;6.25;;;3.35;;
7295;SDS011;40758;54.038;11.684;2024-01-30T03:19:01;8.32;;;4.72;;
7295;SDS011;40758;54.038;11.684;2024-01-30T03:21:29;7.28;;;4.30;;
7295;SDS011;40758;54.038;11.684;2024-01-30T03:23:56;8.82;;;3.83;;
7295;SDS011;40758;54.038;11.684;2024-01-30T03:26:22;7.28;;;3.97;;
7295;SDS011;40758;54.038;11.684;2024-01-30T03:28:49;9.15;;;5.10;;
7295;SDS011;40758;54.038;11.684;2024-01-30T03:31:16;6.80;;;4.25;;
7295;SDS011;40758;54.038;11.684;2024-01-30T03:33:43;5.75;;;3.30;;
7295;SDS011;40758;54.038;11.684;2024-01-30T03:36:10;7.57;;;3.03;;
7295;SDS011;40758;54.038;11.684;2024-01-30T03:38:37;6.70;;;3.42;;
7295;SDS011;40758;54.038;11.684;2024-01-30T03:41:07;8.30;;;3.88;;
7295;SDS011;40758;54.038;11.684;2024-01-30T03:43:37;8.43;;;3.95;;
7295;SDS011;40758;54.038;11.684;2024-01-30T03:46:03;7.50;;;4.50;;
7295;SDS011;40758;54.038;11.684;2024-01-30T03:48:30;6.90;;;4.25;;
7295;SDS011;40758;54.038;11.684;2024-01-30T03:50:58;9.02;;;5.30;;
7295;SDS011;40758;54.038;11.684;2024-01-30T03:53:25;7.57;;;4.28;;
7295;SDS011;40758;54.038;11.684;2024-01-30T03:55:52;8.02;;;3.90;;
7295;SDS011;40758;54.038;11.684;2024-01-30T03:58:18;10.32;;;4.13;;
7295;SDS011;40758;54.038;11.684;2024-01-30T04:00:45;10.13;;;4.85;;
7295;SDS011;40758;54.038;11.684;2024-01-30T04:03:14;6.38;;;4.28;;
7295;SDS011;40758;54.038;11.684;2024-01-30T04:05:41;8.00;;;4.53;;
7295;SDS011;40758;54.038;11.684;2024-01-30T04:08:09;10.13;;;4.65;;
7295;SDS011;40758;54.038;11.684;2024-01-30T04:10:36;8.52;;;4.85;;
7295;SDS011;40758;54.038;11.684;2024-01-30T04:13:02;7.75;;;4.05;;
7295;SDS011;40758;54.038;11.684;2024-01-30T04:15:29;9.43;;;4.47;;
7295;SDS011;40758;54.038;11.684;2024-01-30T04:17:59;8.95;;;4.45;;
7295;SDS011;40758;54.038;11.684;2024-01-30T04:20:26;8.82;;;4.65;;
7295;SDS011;40758;54.038;11.684;2024-01-30T04:22:52;7.43;;;3.75;;
7295;SDS011;40758;54.038;11.684;2024-01-30T04:25:19;11.85;;;4.45;;
7295;SDS011;40758;54.038;11.684;2024-01-30T04:27:46;8.60;;;4.95;;
7295;SDS011;40758;54.038;11.684;2024-01-30T04:30:14;9.40;;;4.60;;
7295;SDS011;40758;54.038;11.684;2024-01-30T04:32:41;9.00;;;4.25;;
7295;SDS011;40758;54.038;11.684;2024-01-30T04:35:08;8.98;;;4.25;;
7295;SDS011;40758;54.038;11.684;2024-01-30T04:37:37;8.80;;;5.18;;
7295;SDS011;40758;54.038;11.684;2024-01-30T04:40:04;9.18;;;4.15;;
7295;SDS011;40758;54.038;11.684;2024-01-30T04:42:31;8.18;;;4.53;;
7295;SDS011;40758;54.038;11.684;2024-01-30T04:44:58;8.70;;;4.82;;
7295;SDS011;40758;54.038;11.684;2024-01-30T04:47:25;10.40;;;6.00;;
7295;SDS011;40758;54.038;11.684;2024-01-30T04:49:55;9.43;;;4.65;;
7295;SDS011;40758;54.038;11.684;2024-01-30T04:52:21;8.57;;;4.20;;
7295;SDS011;40758;54.038;11.684;2024-01-30T04:54:48;9.68;;;5.70;;
7295;SDS011;40758;54.038;11.684;2024-01-30T04:57:15;9.15;;;5.60;;
7295;SDS011;40758;54.038;11.684;2024-01-30T04:59:42;10.00;;;4.40;;
7295;SDS011;40758;54.038;11.684;2024-01-30T05:02:08;9.00;;;4.45;;
7295;SDS011;40758;54.038;11.684;2024-01-30T05:04:35;9.50;;;5.20;;
7295;SDS011;40758;54.038;11.684;2024-01-30T05:07:02;10.93;;;6.45;;
7295;SDS011;40758;54.038;11.684;2024-01-30T05:09:29;10.57;;;5.07;;
7295;SDS011;40758;54.038;11.684;2024-01-30T05:11:56;11.20;;;7.13;;
7295;SDS011;40758;54.038;11.684;2024-01-30T05:14:24;8.75;;;4.72;;
7295;SDS011;40758;54.038;11.684;2024-01-30T05:16:51;9.55;;;4.80;;
7295;SDS011;40758;54.038;11.684;2024-01-30T05:19:18;11.23;;;6.47;;
7295;SDS011;40758;54.038;11.684;2024-01-30T05:21:45;8.95;;;5.45;;
7295;SDS011;40758;54.038;11.684;2024-01-30T05:24:12;10.88;;;5.60;;
7295;SDS011;40758;54.038;11.684;2024-01-30T05:26:39;10.50;;;5.38;;
7295;SDS011;40758;54.038;11.684;2024-01-30T05:29:06;10.57;;;6.25;;
7295;SDS011;40758;54.038;11.684;2024-01-30T05:31:33;11.27;;;5.68;;
7295;SDS011;40758;54.038;11.684;2024-01-30T05:34:01;15.32;;;6.47;;
7295;SDS011;40758;54.038;11.684;2024-01-30T05:36:28;13.30;;;5.85;;
7295;SDS011;40758;54.038;11.684;2024-01-30T05:38:55;9.27;;;5.55;;
7295;SDS011;40758;54.038;11.684;2024-01-30T05:41:23;10.70;;;5.72;;
7295;SDS011;40758;54.038;11.684;2024-01-30T05:43:50;10.02;;;5.55;;
7295;SDS011;40758;54.038;11.684;2024-01-30T05:46:16;12.40;;;6.22;;
7295;SDS011;40758;54.038;11.684;2024-01-30T05:48:45;9.50;;;5.88;;
7295;SDS011;40758;54.038;11.684;2024-01-30T05:51:12;12.48;;;6.55;;
7295;SDS011;40758;54.038;11.684;2024-01-30T05:53:39;10.73;;;6.15;;
7295;SDS011;40758;54.038;11.684;2024-01-30T05:56:06;11.27;;;6.20;;
7295;SDS011;40758;54.038;11.684;2024-01-30T05:58:33;8.50;;;4.63;;
7295;SDS011;40758;54.038;11.684;2024-01-30T06:01:00;9.48;;;5.43;;
7295;SDS011;40758;54.038;11.684;2024-01-30T06:03:27;11.85;;;6.07;;
7295;SDS011;40758;54.038;11.684;2024-01-30T06:05:53;11.30;;;6.75;;
7295;SDS011;40758;54.038;11.684;2024-01-30T06:08:20;13.98;;;6.30;;
7295;SDS011;40758;54.038;11.684;2024-01-30T06:10:48;11.18;;;5.32;;
7295;SDS011;40758;54.038;11.684;2024-01-30T06:13:15;13.25;;;6.82;;
7295;SDS011;40758;54.038;11.684;2024-01-30T06:15:42;10.77;;;5.53;;
7295;SDS011;40758;54.038;11.684;2024-01-30T06:18:09;10.00;;;4.88;;
7295;SDS011;40758;54.038;11.684;2024-01-30T06:20:36;6.18;;;3.30;;
7295;SDS011;40758;54.038;11.684;2024-01-30T06:23:03;12.27;;;4.43;;
7295;SDS011;40758;54.038;11.684;2024-01-30T06:25:30;8.27;;;3.67;;
7295;SDS011;40758;54.038;11.684;2024-01-30T06:27:57;9.68;;;6.53;;
7295;SDS011;40758;54.038;11.684;2024-01-30T06:30:24;10.40;;;5.47;;
7295;SDS011;40758;54.038;11.684;2024-01-30T06:32:50;12.05;;;5.70;;
7295;SDS011;40758;54.038;11.684;2024-01-30T06:35:17;11.73;;;5.75;;
7295;SDS011;40758;54.038;11.684;2024-01-30T06:37:44;10.80;;;5.68;;
7295;SDS011;40758;54.038;11.684;2024-01-30T06:40:11;11.02;;;5.28;;
7295;SDS011;40758;54.038;11.684;2024-01-30T06:42:38;3.13;;;2.20;;
7295;SDS011;40758;54.038;11.684;2024-01-30T06:45:05;10.07;;;6.15;;
7295;SDS011;40758;54.038;11.684;2024-01-30T06:47:32;12.43;;;6.60;;
7295;SDS011;40758;54.038;11.684;2024-01-30T06:50:00;13.10;;;6.70;;
7295;SDS011;40758;54.038;11.684;2024-01-30T06:52:28;10.80;;;6.32;;
7295;SDS011;40758;54.038;11.684;2024-01-30T06:54:55;12.70;;;5.80;;
7295;SDS011;40758;54.038;11.684;2024-01-30T06:57:21;12.05;;;5.15;;
7295;SDS011;40758;54.038;11.684;2024-01-30T06:59:48;5.38;;;2.72;;
7295;SDS011;40758;54.038;11.684;2024-01-30T07:02:15;10.23;;;3.03;;
7295;SDS011;40758;54.038;11.684;2024-01-30T07:04:42;10.93;;;6.13;;
7295;SDS011;40758;54.038;11.684;2024-01-30T07:07:12;11.30;;;7.25;;
7295;SDS011;40758;54.038;11.684;2024-01-30T07:09:42;8.45;;;4.50;;
7295;SDS011;40758;54.038;11.684;2024-01-30T07:12:08;11.68;;;5.88;;
7295;SDS011;40758;54.038;11.684;2024-01-30T07:14:35;12.70;;;6.32;;
7295;SDS011;40758;54.038;11.684;2024-01-30T07:17:02;13.43;;;7.95;;
7295;SDS011;40758;54.038;11.684;2024-01-30T07:19:29;11.55;;;5.78;;
7295;SDS011;40758;54.038;11.684;2024-01-30T07:21:56;13.25;;;7.38;;
7295;SDS011;40758;54.038;11.684;2024-01-30T07:24:22;13.00;;;6.20;;
7295;SDS011;40758;54.038;11.684;2024-01-30T07:26:49;14.13;;;6.82;;
7295;SDS011;40758;54.038;11.684;2024-01-30T07:29:16;15.35;;;6.28;;
7295;SDS011;40758;54.038;11.684;2024-01-30T07:31:42;12.20;;;7.03;;
7295;SDS011;40758;54.038;11.684;2024-01-30T07:34:09;12.52;;;6.70;;
7295;SDS011;40758;54.038;11.684;2024-01-30T07:36:37;14.30;;;7.10;;
7295;SDS011;40758;54.038;11.684;2024-01-30T07:39:06;16.10;;;7.80;;
7295;SDS011;40758;54.038;11.684;2024-01-30T07:41:33;15.88;;;9.35;;
7295;SDS011;40758;54.038;11.684;2024-01-30T07:43:59;13.15;;;7.63;;
7295;SDS011;40758;54.038;11.684;2024-01-30T07:46:26;11.25;;;7.47;;
7295;SDS011;40758;54.038;11.684;2024-01-30T07:48:53;13.65;;;6.43;;
7295;SDS011;40758;54.038;11.684;2024-01-30T07:51:22;13.35;;;7.05;;
7295;SDS011;40758;54.038;11.684;2024-01-30T07:53:49;11.40;;;5.80;;
7295;SDS011;40758;54.038;11.684;2024-01-30T07:56:15;15.90;;;7.85;;
7295;SDS011;40758;54.038;11.684;2024-01-30T07:58:42;15.55;;;7.70;;
7295;SDS011;40758;54.038;11.684;2024-01-30T08:01:09;17.83;;;8.68;;
7295;SDS011;40758;54.038;11.684;2024-01-30T08:03:36;8.57;;;3.58;;
7295;SDS011;40758;54.038;11.684;2024-01-30T08:06:06;14.13;;;6.43;;
7295;SDS011;40758;54.038;11.684;2024-01-30T08:08:33;12.48;;;7.10;;
7295;SDS011;40758;54.038;11.684;2024-01-30T08:10:59;13.32;;;7.65;;
7295;SDS011;40758;54.038;11.684;2024-01-30T08:13:27;14.25;;;7.18;;
7295;SDS011;40758;54.038;11.684;2024-01-30T08:15:54;14.07;;;7.55;;
7295;SDS011;40758;54.038;11.684;2024-01-30T08:18:20;14.23;;;7.75;;
7295;SDS011;40758;54.038;11.684;2024-01-30T08:20:47;14.38;;;7.90;;
7295;SDS011;40758;54.038;11.684;2024-01-30T08:23:15;10.23;;;5.10;;
7295;SDS011;40758;54.038;11.684;2024-01-30T08:25:42;13.38;;;5.95;;
7295;SDS011;40758;54.038;11.684;2024-01-30T08:28:08;14.32;;;8.13;;
7295;SDS011;40758;54.038;11.684;2024-01-30T08:30:35;14.35;;;8.80;;
7295;SDS011;40758;54.038;11.684;2024-01-30T08:33:02;11.90;;;5.25;;
7295;SDS011;40758;54.038;11.684;2024-01-30T08:35:29;16.98;;;7.70;;
7295;SDS011;40758;54.038;11.684;2024-01-30T08:37:58;14.95;;;7.57;;
7295;SDS011;40758;54.038;11.684;2024-01-30T08:40:24;12.95;;;7.47;;
7295;SDS011;40758;54.038;11.684;2024-01-30T08:42:51;14.70;;;6.85;;
7295;SDS011;40758;54.038;11.684;2024-01-30T08:45:18;13.38;;;7.82;;
7295;SDS011;40758;54.038;11.684;2024-01-30T08:47:45;12.65;;;7.90;;
7295;SDS011;40758;54.038;11.684;2024-01-30T08:50:12;14.27;;;8.05;;
7295;SDS011;40758;54.038;11.684;2024-01-30T08:52:40;14.98;;;7.15;;
7295;SDS011;40758;54.038;11.684;2024-01-30T08:55:07;14.60;;;6.80;;
7295;SDS011;40758;54.038;11.684;2024-01-30T08:57:34;13.80;;;8.13;;
7295;SDS011;40758;54.038;11.684;2024-01-30T09:00:01;14.65;;;6.88;;
7295;SDS011;40758;54.038;11.684;2024-01-30T09:02:31;12.50;;;7.97;;
7295;SDS011;40758;54.038;11.684;2024-01-30T09:04:57;13.85;;;7.90;;
7295;SDS011;40758;54.038;11.684;2024-01-30T09:07:25;13.95;;;7.65;;
7295;SDS011;40758;54.038;11.684;2024-01-30T09:09:51;14.02;;;7.93;;
7295;SDS011;40758;54.038;11.684;2024-01-30T09:12:18;10.10;;;5.68;;
7295;SDS011;40758;54.038;11.684;2024-01-30T09:14:45;14.40;;;7.97;;
7295;SDS011;40758;54.038;11.684;2024-01-30T09:17:11;11.30;;;7.05;;
7295;SDS011;40758;54.038;11.684;2024-01-30T09:19:40;12.63;;;7.25;;
7295;SDS011;40758;54.038;11.684;2024-01-30T09:22:08;13.30;;;7.82;;
7295;SDS011;40758;54.038;11.684;2024-01-30T09:24:35;14.00;;;6.88;;
7295;SDS011;40758;54.038;11.684;2024-01-30T09:27:02;12.13;;;7.60;;
7295;SDS011;40758;54.038;11.684;2024-01-30T09:29:29;13.85;;;7.15;;
7295;SDS011;40758;54.038;11.684;2024-01-30T09:31:56;11.02;;;6.43;;
7295;SDS011;40758;54.038;11.684;2024-01-30T09:34:24;16.77;;;8.18;;
7295;SDS011;40758;54.038;11.684;2024-01-30T09:36:51;11.65;;;7.15;;
7295;SDS011;40758;54.038;11.684;2024-01-30T09:39:18;13.93;;;7.72;;
7295;SDS011;40758;54.038;11.684;2024-01-30T09:41:51;13.05;;;7.40;;
7295;SDS011;40758;54.038;11.684;2024-01-30T09:44:52;14.15;;;7.80;;
7295;SDS011;40758;54.038;11.684;2024-01-30T09:47:20;14.68;;;7.57;;
7295;SDS011;40758;54.038;11.684;2024-01-30T09:49:47;12.23;;;6.22;;
7295;SDS011;40758;54.038;11.684;2024-01-30T09:52:15;10.25;;;6.72;;
7295;SDS011;40758;54.038;11.684;2024-01-30T09:54:42;11.90;;;7.03;;
7295;SDS011;40758;54.038;11.684;2024-01-30T09:59:38;14.02;;;7.38;;
7295;SDS011;40758;54.038;11.684;2024-01-30T10:02:05;14.60;;;8.18;;
7295;SDS011;40758;54.038;11.684;2024-01-30T10:04:33;13.35;;;6.97;;
7295;SDS011;40758;54.038;11.684;2024-01-30T10:07:01;11.63;;;7.43;;
7295;SDS011;40758;54.038;11.684;2024-01-30T10:09:31;11.45;;;7.63;;
7295;SDS011;40758;54.038;11.684;2024-01-30T10:11:59;12.30;;;7.68;;
7295;SDS011;40758;54.038;11.684;2024-01-30T10:14:25;12.32;;;7.25;;
7295;SDS011;40758;54.038;11.684;2024-01-30T10:16:54;14.20;;;8.05;;
7295;SDS011;40758;54.038;11.684;2024-01-30T10:19:21;11.80;;;6.40;;
7295;SDS011;40758;54.038;11.684;2024-01-30T10:21:48;11.70;;;6.78;;
7295;SDS011;40758;54.038;11.684;2024-01-30T10:24:15;8.65;;;4.95;;
7295;SDS011;40758;54.038;11.684;2024-01-30T10:26:44;13.95;;;8.00;;
7295;SDS011;40758;54.038;11.684;2024-01-30T10:29:10;14.85;;;8.65;;
7295;SDS011;40758;54.038;11.684;2024-01-30T10:31:37;14.07;;;9.23;;
7295;SDS011;40758;54.038;11.684;2024-01-30T10:34:04;13.07;;;8.20;;
7295;SDS011;40758;54.038;11.684;2024-01-30T10:36:44;15.40;;;8.23;;
7295;SDS011;40758;54.038;11.684;2024-01-30T10:39:17;14.45;;;8.32;;
7295;SDS011;40758;54.038;11.684;2024-01-30T10:41:44;12.80;;;7.38;;
7295;SDS011;40758;54.038;11.684;2024-01-30T10:44:12;12.32;;;7.65;;
7295;SDS011;40758;54.038;11.684;2024-01-30T10:46:45;12.23;;;7.25;;
7295;SDS011;40758;54.038;11.684;2024-01-30T10:49:23;12.27;;;7.10;;
7295;SDS011;40758;54.038;11.684;2024-01-30T10:51:51;14.18;;;8.52;;
7295;SDS011;40758;54.038;11.684;2024-01-30T10:54:19;14.23;;;6.53;;
7295;SDS011;40758;54.038;11.684;2024-01-30T10:56:47;11.65;;;6.70;;
7295;SDS011;40758;54.038;11.684;2024-01-30T10:59:15;13.90;;;7.47;;
7295;SDS011;40758;54.038;11.684;2024-01-30T11:01:42;12.82;;;8.02;;
7295;SDS011;40758;54.038;11.684;2024-01-30T11:04:09;13.98;;;7.63;;
7295;SDS011;40758;54.038;11.684;2024-01-30T11:06:42;10.43;;;6.45;;
7295;SDS011;40758;54.038;11.684;2024-01-30T11:09:10;10.43;;;6.40;;
7295;SDS011;40758;54.038;11.684;2024-01-30T11:11:49;10.27;;;6.63;;
7295;SDS011;40758;54.038;11.684;2024-01-30T11:14:27;12.07;;;7.05;;
7295;SDS011;40758;54.038;11.684;2024-01-30T11:16:57;11.80;;;7.47;;
7295;SDS011;40758;54.038;11.684;2024-01-30T11:19:30;13.05;;;7.53;;
7295;SDS011;40758;54.038;11.684;2024-01-30T11:21:58;12.93;;;6.82;;
7295;SDS011;40758;54.038;11.684;2024-01-30T11:24:27;11.82;;;6.88;;
7295;SDS011;40758;54.038;11.684;2024-01-30T11:26:58;9.95;;;6.03;;
7295;SDS011;40758;54.038;11.684;2024-01-30T11:29:28;12.65;;;7.70;;
7295;SDS011;40758;54.038;11.684;2024-01-30T11:31:56;12.00;;;6.60;;
7295;SDS011;40758;54.038;11.684;2024-01-30T11:34:25;9.73;;;4.78;;
7295;SDS011;40758;54.038;11.684;2024-01-30T11:37:03;12.63;;;7.28;;
7295;SDS011;40758;54.038;11.684;2024-01-30T11:39:35;12.02;;;7.50;;
7295;SDS011;40758;54.038;11.684;2024-01-30T11:42:03;9.15;;;6.25;;
7295;SDS011;40758;54.038;11.684;2024-01-30T11:44:31;11.18;;;6.10;;
7295;SDS011;40758;54.038;11.684;2024-01-30T11:46:59;12.63;;;8.32;;
7295;SDS011;40758;54.038;11.684;2024-01-30T11:49:26;12.07;;;7.13;;
7295;SDS011;40758;54.038;11.684;2024-01-30T11:51:53;13.40;;;6.22;;
7295;SDS011;40758;54.038;11.684;2024-01-30T11:54:20;13.52;;;7.03;;
7295;SDS011;40758;54.038;11.684;2024-01-30T11:56:47;11.85;;;6.82;;
7295;SDS011;40758;54.038;11.684;2024-01-30T11:59:13;12.18;;;7.03;;
7295;SDS011;40758;54.038;11.684;2024-01-30T12:01:41;11.48;;;5.55;;
7295;SDS011;40758;54.038;11.684;2024-01-30T12:04:08;8.98;;;6.00;;
7295;SDS011;40758;54.038;11.684;2024-01-30T12:06:37;12.95;;;6.10;;
7295;SDS011;40758;54.038;11.684;2024-01-30T12:09:04;10.27;;;7.05;;
7295;SDS011;40758;54.038;11.684;2024-01-30T12:11:33;10.65;;;7.18;;
7295;SDS011;40758;54.038;11.684;2024-01-30T12:14:09;10.73;;;5.50;;
7295;SDS011;40758;54.038;11.684;2024-01-30T12:16:36;8.52;;;4.15;;
7295;SDS011;40758;54.038;11.684;2024-01-30T12:19:03;12.18;;;7.43;;
7295;SDS011;40758;54.038;11.684;2024-01-30T12:21:30;13.50;;;6.38;;
7295;SDS011;40758;54.038;11.684;2024-01-30T12:23:57;8.95;;;4.50;;
7295;SDS011;40758;54.038;11.684;2024-01-30T12:26:24;10.40;;;5.70;;
7295;SDS011;40758;54.038;11.684;2024-01-30T12:28:55;9.07;;;5.55;;
7295;SDS011;40758;54.038;11.684;2024-01-30T12:31:25;11.77;;;6.68;;
7295;SDS011;40758;54.038;11.684;2024-01-30T12:33:54;13.80;;;6.65;;
7295;SDS011;40758;54.038;11.684;2024-01-30T12:36:22;9.75;;;7.53;;
7295;SDS011;40758;54.038;11.684;2024-01-30T12:38:49;11.15;;;6.93;;
7295;SDS011;40758;54.038;11.684;2024-01-30T12:41:16;11.30;;;5.90;;
7295;SDS011;40758;54.038;11.684;2024-01-30T12:43:43;12.02;;;6.65;;
7295;SDS011;40758;54.038;11.684;2024-01-30T12:46:11;9.77;;;5.25;;
7295;SDS011;40758;54.038;11.684;2024-01-30T12:48:37;12.55;;;6.38;;
7295;SDS011;40758;54.038;11.684;2024-01-30T12:51:04;10.63;;;6.28;;
7295;SDS011;40758;54.038;11.684;2024-01-30T12:53:31;10.48;;;6.22;;
7295;SDS011;40758;54.038;11.684;2024-01-30T12:55:59;7.55;;;4.90;;
7295;SDS011;40758;54.038;11.684;2024-01-30T12:58:25;9.52;;;4.70;;
7295;SDS011;40758;54.038;11.684;2024-01-30T13:00:52;15.18;;;7.57;;
7295;SDS011;40758;54.038;11.684;2024-01-30T13:03:20;13.15;;;5.68;;
7295;SDS011;40758;54.038;11.684;2024-01-30T13:05:48;9.50;;;5.75;;
7295;SDS011;40758;54.038;11.684;2024-01-30T13:08:15;12.15;;;5.90;;
7295;SDS011;40758;54.038;11.684;2024-01-30T13:10:42;11.15;;;5.88;;
7295;SDS011;40758;54.038;11.684;2024-01-30T13:13:11;12.20;;;6.03;;
7295;SDS011;40758;54.038;11.684;2024-01-30T13:15:47;11.65;;;6.72;;
7295;SDS011;40758;54.038;11.684;2024-01-30T13:18:15;11.40;;;6.10;;
7295;SDS011;40758;54.038;11.684;2024-01-30T13:20:42;9.43;;;4.93;;
7295;SDS011;40758;54.038;11.684;2024-01-30T13:23:09;10.80;;;7.00;;
7295;SDS011;40758;54.038;11.684;2024-01-30T13:25:36;14.25;;;6.15;;
7295;SDS011;40758;54.038;11.684;2024-01-30T13:28:03;12.52;;;6.38;;
7295;SDS011;40758;54.038;11.684;2024-01-30T13:30:30;10.10;;;5.53;;
7295;SDS011;40758;54.038;11.684;2024-01-30T13:32:58;11.27;;;6.60;;
7295;SDS011;40758;54.038;11.684;2024-01-30T13:35:25;11.10;;;7.03;;
7295;SDS011;40758;54.038;11.684;2024-01-30T13:37:52;9.55;;;5.47;;
7295;SDS011;40758;54.038;11.684;2024-01-30T13:40:19;8.20;;;5.43;;
7295;SDS011;40758;54.038;11.684;2024-01-30T13:42:46;10.40;;;6.15;;
7295;SDS011;40758;54.038;11.684;2024-01-30T13:47:41;10.80;;;7.03;;
7295;SDS011;40758;54.038;11.684;2024-01-30T13:50:08;8.52;;;5.70;;
7295;SDS011;40758;54.038;11.684;2024-01-30T13:52:37;14.63;;;7.40;;
7295;SDS011;40758;54.038;11.684;2024-01-30T13:55:10;10.85;;;5.57;;
7295;SDS011;40758;54.038;11.684;2024-01-30T13:57:37;12.00;;;5.82;;
7295;SDS011;40758;54.038;11.684;2024-01-30T14:00:05;8.15;;;4.00;;
7295;SDS011;40758;54.038;11.684;2024-01-30T14:02:33;10.43;;;5.07;;
7295;SDS011;40758;54.038;11.684;2024-01-30T14:05:00;12.98;;;6.32;;
7295;SDS011;40758;54.038;11.684;2024-01-30T14:07:28;10.75;;;5.65;;
7295;SDS011;40758;54.038;11.684;2024-01-30T14:09:55;9.38;;;5.22;;
7295;SDS011;40758;54.038;11.684;2024-01-30T14:12:22;9.82;;;5.70;;
7295;SDS011;40758;54.038;11.684;2024-01-30T14:14:51;10.48;;;5.93;;
7295;SDS011;40758;54.038;11.684;2024-01-30T14:17:18;11.27;;;5.80;;
7295;SDS011;40758;54.038;11.684;2024-01-30T14:19:44;13.35;;;7.50;;
7295;SDS011;40758;54.038;11.684;2024-01-30T14:22:11;12.35;;;6.28;;
7295;SDS011;40758;54.038;11.684;2024-01-30T14:24:38;11.23;;;5.88;;
7295;SDS011;40758;54.038;11.684;2024-01-30T14:27:05;8.70;;;4.88;;
7295;SDS011;40758;54.038;11.684;2024-01-30T14:29:32;11.25;;;7.03;;
7295;SDS011;40758;54.038;11.684;2024-01-30T14:31:58;13.25;;;6.63;;
7295;SDS011;40758;54.038;11.684;2024-01-30T14:34:25;9.50;;;5.40;;
7295;SDS011;40758;54.038;11.684;2024-01-30T14:36:54;9.40;;;5.70;;
7295;SDS011;40758;54.038;11.684;2024-01-30T14:39:21;11.30;;;6.78;;
7295;SDS011;40758;54.038;11.684;2024-01-30T14:41:48;12.57;;;6.32;;
7295;SDS011;40758;54.038;11.684;2024-01-30T14:44:16;11.60;;;6.32;;
7295;SDS011;40758;54.038;11.684;2024-01-30T14:46:43;12.07;;;7.60;;